Time;durP1;ratioP1;P1;durP2;ratioP2;P2;SDS_P1;SDS_P2;PMS_P1;PMS_P2;Temp;Humidity;BMP_temperature;BMP_pressure;BME280_temperature;BME280_humidity;BME280_pressure;Samples;Min_cycle;Max_cycle;Signal;HPM_P1;HPM_P2
2021/01/04 00:01:57;;;;;;;11.93;5.70;;;3.20;99.90;;;;;;5104806;27;20759;-80
2021/01/04 00:05:07;;;;;;;6.90;4.18;;;3.20;99.90;;;;;;5093739;28;20036;-78
2021/01/04 00:07:57;;;;;;;10.48;5.50;;;3.20;99.90;;;;;;5105736;28;20056;-76
2021/01/04 00:10:55;;;;;;;10.52;4.10;;;3.20;99.90;;;;;;5089203;28;20044;-78
2021/01/04 00:13:24;;;;;;;6.50;4.90;;;3.10;99.90;;;;;;5094035;28;20115;-80
2021/01/04 00:16:01;;;;;;;7.30;3.97;;;3.10;99.90;;;;;;5088718;28;20089;-80
2021/01/04 00:18:41;;;;;;;9.40;4.60;;;3.10;99.90;;;;;;5105149;28;20042;-80
2021/01/04 00:21:18;;;;;;;9.48;3.97;;;3.20;99.90;;;;;;5091620;28;20040;-78
2021/01/04 00:23:51;;;;;;;9.80;4.53;;;3.20;99.90;;;;;;5096248;28;20043;-79
2021/01/04 00:26:29;;;;;;;10.07;4.72;;;3.20;99.90;;;;;;5088091;28;20040;-79
2021/01/04 00:28:56;;;;;;;9.50;4.22;;;3.20;99.90;;;;;;5104445;28;20047;-79
2021/01/04 00:31:33;;;;;;;10.65;4.45;;;3.20;99.90;;;;;;5095113;28;20485;-77
2021/01/04 00:34:17;;;;;;;11.90;4.43;;;3.30;99.90;;;;;;5104617;28;20047;-76
2021/01/04 00:37:34;;;;;;;7.18;4.00;;;3.20;99.90;;;;;;5096629;28;20070;-76
2021/01/04 00:40:17;;;;;;;9.30;4.63;;;3.20;99.90;;;;;;5086291;28;20127;-77
2021/01/04 00:42:51;;;;;;;8.93;3.75;;;3.30;99.90;;;;;;5101710;28;20043;-78
2021/01/04 00:45:25;;;;;;;10.90;5.03;;;3.30;99.90;;;;;;5099213;28;20472;-77
2021/01/04 00:48:00;;;;;;;10.43;4.50;;;3.30;99.90;;;;;;5099340;28;20036;-78
2021/01/04 00:50:51;;;;;;;9.68;4.40;;;3.20;99.90;;;;;;5097981;28;20126;-77
2021/01/04 00:53:37;;;;;;;7.95;3.88;;;3.30;99.90;;;;;;5106612;28;20163;-78
2021/01/04 00:56:37;;;;;;;8.95;4.50;;;3.30;99.90;;;;;;5092009;28;20032;-75
2021/01/04 00:59:12;;;;;;;8.35;4.05;;;3.20;99.90;;;;;;5093797;28;20056;-75
2021/01/04 01:02:14;;;;;;;9.45;4.07;;;3.30;99.90;;;;;;5118322;28;20032;-78
2021/01/04 01:05:01;;;;;;;11.18;4.93;;;3.30;99.90;;;;;;5092670;28;20043;-79
2021/01/04 01:07:59;;;;;;;11.50;4.65;;;3.20;99.90;;;;;;5097560;28;20070;-77
2021/01/04 01:10:28;;;;;;;9.88;3.72;;;3.20;99.90;;;;;;5097813;28;20389;-78
2021/01/04 01:13:04;;;;;;;6.38;3.58;;;3.30;99.90;;;;;;5108087;28;20126;-79
2021/01/04 01:15:55;;;;;;;7.40;4.10;;;3.20;99.90;;;;;;5093320;28;20031;-77
2021/01/04 01:18:48;;;;;;;7.20;3.70;;;3.20;99.90;;;;;;5081239;28;20105;-79
2021/01/04 01:21:14;;;;;;;7.22;3.95;;;3.20;99.90;;;;;;5106034;28;20101;-74
2021/01/04 01:23:41;;;;;;;6.07;3.88;;;3.30;99.90;;;;;;5102583;28;20048;-77
2021/01/04 01:26:16;;;;;;;8.32;4.50;;;3.20;99.90;;;;;;5116079;28;20036;-76
2021/01/04 01:29:06;;;;;;;9.43;4.53;;;3.20;99.90;;;;;;5105460;28;20050;-78
2021/01/04 01:31:59;;;;;;;7.78;4.90;;;3.20;99.90;;;;;;5103190;28;20430;-78
2021/01/04 01:34:38;;;;;;;9.30;5.13;;;3.20;99.90;;;;;;5090182;28;20536;-79
2021/01/04 01:37:42;;;;;;;10.15;3.97;;;3.20;99.90;;;;;;5104607;28;20040;-76
2021/01/04 01:40:29;;;;;;;10.65;4.22;;;3.20;99.90;;;;;;5088566;28;20056;-78
2021/01/04 01:43:27;;;;;;;9.07;4.15;;;3.20;99.90;;;;;;5095041;28;20047;-78
2021/01/04 01:46:17;;;;;;;8.52;4.72;;;3.20;99.90;;;;;;5093037;28;20048;-78
2021/01/04 01:48:55;;;;;;;8.93;4.95;;;3.20;99.90;;;;;;5096253;28;20047;-80
2021/01/04 01:51:30;;;;;;;8.27;4.28;;;3.20;99.90;;;;;;5093718;28;20035;-78
2021/01/04 01:54:05;;;;;;;9.57;4.65;;;3.20;99.90;;;;;;5103567;28;20521;-80
2021/01/04 01:56:49;;;;;;;10.48;4.65;;;3.20;99.90;;;;;;5103463;28;20059;-81
2021/01/04 01:59:56;;;;;;;10.00;4.65;;;3.20;99.90;;;;;;5110060;28;20044;-78
2021/01/04 02:02:33;;;;;;;8.50;5.30;;;3.10;99.90;;;;;;5096637;28;20515;-76
2021/01/04 02:05:25;;;;;;;12.88;4.07;;;3.30;99.90;;;;;;5104035;28;20034;-78
2021/01/04 02:08:02;;;;;;;9.52;4.43;;;3.20;99.90;;;;;;5101641;28;20071;-78
2021/01/04 02:10:35;;;;;;;10.05;4.60;;;3.20;99.90;;;;;;5097462;28;20480;-77
2021/01/04 02:13:39;;;;;;;8.13;4.15;;;3.20;99.90;;;;;;5108022;28;20040;-77
2021/01/04 02:16:18;;;;;;;8.88;3.88;;;3.20;99.90;;;;;;5079951;28;20050;-80
2021/01/04 02:18:54;;;;;;;8.50;4.18;;;3.20;99.90;;;;;;5102369;28;20059;-78
2021/01/04 02:21:58;;;;;;;6.55;3.65;;;3.20;99.90;;;;;;5128020;28;20044;-75
2021/01/04 02:24:26;;;;;;;10.45;4.28;;;3.20;99.90;;;;;;5106154;28;20040;-78
2021/01/04 02:27:00;;;;;;;6.45;3.70;;;3.20;99.90;;;;;;5111772;28;20036;-76
2021/01/04 02:29:26;;;;;;;8.50;3.92;;;3.20;99.90;;;;;;5103682;28;20050;-77
2021/01/04 02:31:57;;;;;;;7.53;3.90;;;3.20;99.90;;;;;;5098823;28;20066;-80
2021/01/04 02:34:30;;;;;;;10.23;4.10;;;3.20;99.90;;;;;;5112127;28;20067;-79
2021/01/04 02:36:59;;;;;;;7.65;4.05;;;3.20;99.90;;;;;;5103919;28;20108;-80
2021/01/04 02:39:51;;;;;;;10.60;4.78;;;3.20;99.90;;;;;;5096425;28;20061;-77
2021/01/04 02:42:32;;;;;;;9.23;4.45;;;3.20;99.90;;;;;;5093895;28;20433;-78
2021/01/04 02:45:01;;;;;;;9.48;4.20;;;3.20;99.90;;;;;;5095106;28;20399;-79
2021/01/04 02:47:48;;;;;;;6.80;3.92;;;3.20;99.90;;;;;;5112496;28;20032;-79
2021/01/04 02:50:41;;;;;;;8.60;4.35;;;3.20;99.90;;;;;;5096220;28;20044;-79
2021/01/04 02:53:18;;;;;;;10.32;4.00;;;3.20;99.90;;;;;;5093335;28;20066;-78
2021/01/04 02:56:03;;;;;;;8.43;4.00;;;3.20;99.90;;;;;;5109154;28;20084;-81
2021/01/04 02:58:49;;;;;;;7.85;4.53;;;3.20;99.90;;;;;;5091353;28;20744;-74
2021/01/04 03:01:21;;;;;;;11.80;4.70;;;3.20;99.90;;;;;;5107966;27;20064;-76
2021/01/04 03:03:47;;;;;;;8.50;3.97;;;3.20;99.90;;;;;;5099656;28;20079;-77
2021/01/04 03:06:26;;;;;;;7.40;4.18;;;3.20;99.90;;;;;;5098756;28;20047;-78
2021/01/04 03:08:58;;;;;;;9.70;4.18;;;3.20;99.90;;;;;;5111787;28;20073;-79
2021/01/04 03:11:29;;;;;;;13.55;4.72;;;3.20;99.90;;;;;;5110154;28;20035;-79
2021/01/04 03:14:21;;;;;;;10.57;4.50;;;3.20;99.90;;;;;;5106470;28;20043;-77
2021/01/04 03:17:13;;;;;;;6.65;3.80;;;3.30;99.90;;;;;;5099676;28;20079;-77
2021/01/04 03:19:41;;;;;;;8.68;4.15;;;3.30;99.90;;;;;;5109077;28;20043;-76
2021/01/04 03:22:10;;;;;;;7.78;3.92;;;3.30;99.90;;;;;;5102107;28;20089;-76
2021/01/04 03:24:36;;;;;;;7.85;3.95;;;3.20;99.90;;;;;;5101918;28;20043;-77
2021/01/04 03:27:13;;;;;;;9.55;3.50;;;3.30;99.90;;;;;;5095357;28;20107;-78
2021/01/04 03:29:38;;;;;;;7.30;3.78;;;3.30;99.90;;;;;;5083364;28;20119;-78
2021/01/04 03:32:05;;;;;;;7.20;3.42;;;3.30;99.90;;;;;;5104536;28;20111;-75
2021/01/04 03:34:30;;;;;;;;;;;3.30;99.90;;;;;;5112032;28;20031;-75
2021/01/04 03:36:56;;;;;;;6.70;3.45;;;3.30;99.90;;;;;;5104550;28;19916;-77
2021/01/04 03:39:28;;;;;;;9.60;4.03;;;3.30;99.90;;;;;;5094138;28;20038;-77
2021/01/04 03:41:56;;;;;;;10.73;4.15;;;3.30;99.90;;;;;;5096661;28;20036;-80
2021/01/04 03:44:23;;;;;;;8.00;3.80;;;3.30;99.90;;;;;;5101319;28;19924;-77
2021/01/04 03:46:49;;;;;;;8.20;3.40;;;3.20;99.90;;;;;;5105018;28;20051;-79
2021/01/04 03:49:15;;;;;;;7.63;3.50;;;3.30;99.90;;;;;;5095607;28;20054;-75
2021/01/04 03:51:48;;;;;;;9.60;3.92;;;3.20;99.90;;;;;;5104072;28;20108;-77
2021/01/04 03:54:14;;;;;;;6.63;3.60;;;3.20;99.90;;;;;;5092943;28;20059;-79
2021/01/04 03:56:39;;;;;;;10.77;3.70;;;3.20;99.90;;;;;;5100106;28;20055;-76
2021/01/04 03:59:05;;;;;;;8.75;3.65;;;3.20;99.90;;;;;;5092830;28;20039;-77
2021/01/04 04:01:31;;;;;;;8.40;3.17;;;3.20;99.90;;;;;;5113376;28;20540;-80
2021/01/04 04:03:57;;;;;;;8.88;3.78;;;3.20;99.90;;;;;;5104485;28;20032;-80
2021/01/04 04:06:26;;;;;;;5.75;3.58;;;3.20;99.90;;;;;;5086612;28;623012;-78
2021/01/04 04:08:51;;;;;;;8.85;3.72;;;3.20;99.90;;;;;;5098875;28;20032;-80
2021/01/04 04:11:18;;;;;;;6.13;4.18;;;3.20;99.90;;;;;;5102384;28;20035;-79
2021/01/04 04:13:44;;;;;;;4.28;2.80;;;3.30;99.90;;;;;;5099941;28;20050;-76
2021/01/04 04:16:09;;;;;;;8.27;3.70;;;3.20;99.90;;;;;;5104169;28;20118;-78
2021/01/04 04:18:36;;;;;;;7.32;3.13;;;3.30;99.90;;;;;;5108735;28;20133;-79
2021/01/04 04:21:02;;;;;;;7.18;2.95;;;3.20;99.90;;;;;;5092515;28;20032;-78
2021/01/04 04:23:28;;;;;;;6.28;3.45;;;3.20;99.90;;;;;;5110066;28;20442;-77
2021/01/04 04:25:54;;;;;;;8.38;3.92;;;3.20;99.90;;;;;;5114036;28;20093;-78
2021/01/04 04:28:19;;;;;;;4.32;2.95;;;3.20;99.90;;;;;;5095091;28;20044;-79
2021/01/04 04:30:45;;;;;;;9.25;3.60;;;3.20;99.90;;;;;;5103518;28;20048;-77
2021/01/04 04:33:11;;;;;;;5.82;3.60;;;3.20;99.90;;;;;;5115014;27;20506;-76
2021/01/04 04:35:36;;;;;;;6.95;3.17;;;3.20;99.90;;;;;;5106199;28;20085;-78
2021/01/04 04:38:02;;;;;;;7.65;3.25;;;3.20;99.90;;;;;;5105085;28;20039;-80
2021/01/04 04:40:32;;;;;;;5.38;3.15;;;3.20;99.90;;;;;;5103022;28;20044;-77
2021/01/04 04:43:12;;;;;;;6.35;2.92;;;3.20;99.90;;;;;;5091428;28;20028;-80
2021/01/04 04:45:40;;;;;;;5.25;3.30;;;3.20;99.90;;;;;;5096832;28;20063;-78
2021/01/04 04:48:36;;;;;;;9.45;2.88;;;3.10;99.90;;;;;;5092224;28;20035;-76
2021/01/04 04:51:20;;;;;;;;;;;3.10;99.90;;;;;;5101485;28;20124;-78
2021/01/04 04:54:07;;;;;;;6.78;3.13;;;3.10;99.90;;;;;;5091632;28;19915;-82
2021/01/04 04:56:54;;;;;;;6.18;3.03;;;3.10;99.90;;;;;;5099220;28;20524;-79
2021/01/04 04:59:45;;;;;;;5.70;2.80;;;3.10;99.90;;;;;;5094870;28;20431;-77
2021/01/04 05:02:21;;;;;;;6.57;3.10;;;3.10;99.90;;;;;;5097429;28;20097;-75
2021/01/04 05:05:05;;;;;;;4.03;2.53;;;3.10;99.90;;;;;;5095120;28;20077;-78
2021/01/04 05:07:44;;;;;;;4.43;2.97;;;3.10;99.90;;;;;;5106084;28;20438;-79
2021/01/04 05:10:29;;;;;;;7.63;2.80;;;3.10;99.90;;;;;;5102633;28;20127;-75
2021/01/04 05:12:58;;;;;;;5.47;2.63;;;3.00;99.90;;;;;;5090616;28;20040;-77
2021/01/04 05:15:45;;;;;;;6.95;2.45;;;3.00;99.90;;;;;;5100316;28;20036;-76
2021/01/04 05:18:47;;;;;;;8.05;3.10;;;3.00;99.90;;;;;;5097647;28;20085;-76
2021/01/04 05:21:25;;;;;;;5.65;2.40;;;3.00;99.90;;;;;;5100263;28;20074;-79
2021/01/04 05:24:25;;;;;;;8.05;2.88;;;3.00;99.90;;;;;;5091143;28;20733;-76
2021/01/04 05:27:09;;;;;;;5.95;2.85;;;3.00;99.90;;;;;;5101303;28;20367;-77
2021/01/04 05:30:03;;;;;;;6.88;2.53;;;2.90;99.90;;;;;;5095546;28;20142;-78
2021/01/04 05:33:09;;;;;;;5.47;2.60;;;2.90;99.90;;;;;;5110207;28;20060;-79
2021/01/04 05:35:36;;;;;;;7.35;2.75;;;2.90;99.90;;;;;;5102668;28;20035;-79
2021/01/04 05:38:26;;;;;;;5.15;2.65;;;2.90;99.90;;;;;;5108420;28;20032;-80
2021/01/04 05:41:31;;;;;;;8.93;2.60;;;2.90;99.90;;;;;;5103982;28;20040;-76
2021/01/04 05:44:37;;;;;;;5.20;2.42;;;2.90;99.90;;;;;;5088614;28;20133;-79
2021/01/04 05:47:32;;;;;;;4.85;2.47;;;2.80;99.90;;;;;;5097031;28;20043;-76
2021/01/04 05:50:22;;;;;;;9.30;2.70;;;2.80;99.90;;;;;;5098278;28;20040;-75
2021/01/04 05:52:52;;;;;;;6.55;2.70;;;2.80;99.90;;;;;;5099277;28;20057;-77
2021/01/04 05:55:18;;;;;;;5.00;2.55;;;2.80;99.90;;;;;;5107394;28;20032;-78
2021/01/04 05:57:49;;;;;;;5.32;2.50;;;2.80;99.90;;;;;;5104473;28;20039;-75
2021/01/04 06:00:36;;;;;;;5.95;2.88;;;2.80;99.90;;;;;;5113528;28;20032;-77
2021/01/04 06:03:15;;;;;;;4.28;2.78;;;2.80;99.90;;;;;;5110384;28;20214;-80
2021/01/04 06:05:41;;;;;;;5.25;2.75;;;2.80;99.90;;;;;;5093792;28;20085;-76
2021/01/04 06:08:21;;;;;;;6.15;3.25;;;2.80;99.90;;;;;;5099349;28;20048;-78
2021/01/04 06:10:47;;;;;;;4.28;2.63;;;2.80;99.90;;;;;;5096323;28;20108;-78
2021/01/04 06:13:19;;;;;;;5.35;2.80;;;2.80;99.90;;;;;;5121679;27;20473;-76
2021/01/04 06:15:46;;;;;;;5.05;3.35;;;2.80;99.90;;;;;;5102943;27;20044;-79
2021/01/04 06:18:19;;;;;;;7.53;3.45;;;2.80;99.90;;;;;;5105885;28;20036;-77
2021/01/04 06:20:46;;;;;;;4.97;3.03;;;2.80;99.90;;;;;;5093338;28;20040;-78
2021/01/04 06:23:14;;;;;;;5.85;2.88;;;2.80;99.90;;;;;;5105377;28;20382;-78
2021/01/04 06:25:40;;;;;;;4.53;2.92;;;2.80;99.90;;;;;;5104850;28;20035;-77
2021/01/04 06:28:05;;;;;;;3.88;2.78;;;2.80;99.90;;;;;;5103437;28;20469;-76
2021/01/04 06:30:35;;;;;;;9.25;2.95;;;2.80;99.90;;;;;;5100909;28;20035;-78
2021/01/04 06:33:13;;;;;;;7.50;3.30;;;2.80;99.90;;;;;;5100216;28;20043;-81
2021/01/04 06:35:39;;;;;;;6.50;2.78;;;2.80;99.90;;;;;;5100159;28;20051;-77
2021/01/04 06:38:27;;;;;;;4.38;2.53;;;2.70;99.90;;;;;;5099684;28;20373;-75
2021/01/04 06:40:54;;;;;;;5.13;2.90;;;2.60;99.90;;;;;;5093792;28;20039;-76
2021/01/04 06:43:38;;;;;;;5.00;2.92;;;2.50;99.90;;;;;;5097576;28;20439;-76
2021/01/04 06:46:29;;;;;;;5.28;2.60;;;2.40;99.90;;;;;;5093541;28;20066;-75
2021/01/04 06:49:15;;;;;;;6.70;3.80;;;2.30;99.90;;;;;;5091221;28;20058;-77
2021/01/04 06:52:12;;;;;;;4.03;2.45;;;2.30;99.90;;;;;;5107433;28;20052;-76
2021/01/04 06:55:09;;;;;;;6.93;2.72;;;2.40;99.90;;;;;;5095820;28;20032;-76
2021/01/04 06:58:17;;;;;;;3.80;2.63;;;2.40;99.90;;;;;;5102560;28;20051;-79
2021/01/04 07:01:21;;;;;;;7.65;3.13;;;2.40;99.90;;;;;;5113710;27;20031;-76
2021/01/04 07:04:08;;;;;;;4.90;2.40;;;2.40;99.90;;;;;;5112803;27;20047;-76
2021/01/04 07:07:05;;;;;;;3.92;2.25;;;2.50;99.90;;;;;;5097746;27;20058;-76
2021/01/04 07:09:55;;;;;;;6.07;2.50;;;2.50;99.90;;;;;;5103736;27;20446;-74
2021/01/04 07:12:39;;;;;;;7.70;2.10;;;2.50;99.90;;;;;;5097733;28;20036;-76
2021/01/04 07:15:28;;;;;;;8.65;2.55;;;2.50;99.90;;;;;;5093134;28;20396;-75
2021/01/04 07:18:00;;;;;;;3.75;2.30;;;2.50;99.90;;;;;;5099164;28;20060;-80
2021/01/04 07:20:45;;;;;;;3.45;2.75;;;2.50;99.90;;;;;;5103724;28;20453;-80
2021/01/04 07:23:41;;;;;;;7.47;3.22;;;2.60;99.90;;;;;;5104905;27;20499;-74
2021/01/04 07:26:20;;;;;;;5.28;2.40;;;2.60;99.90;;;;;;5103627;27;20047;-77
2021/01/04 07:29:17;;;;;;;5.38;2.60;;;2.60;99.90;;;;;;5091123;28;20052;-76
2021/01/04 07:31:52;;;;;;;4.13;2.50;;;2.60;99.90;;;;;;5100856;28;20040;-79
2021/01/04 07:34:39;;;;;;;6.13;2.55;;;2.60;99.90;;;;;;5102177;28;20175;-76
2021/01/04 07:37:25;;;;;;;3.90;1.90;;;2.50;99.90;;;;;;5094826;28;20035;-79
2021/01/04 07:39:58;;;;;;;5.05;2.40;;;2.50;99.90;;;;;;5102230;28;20081;-82
2021/01/04 07:42:41;;;;;;;3.55;2.33;;;3.10;99.90;;;;;;5098633;28;20134;-78
2021/01/04 07:45:35;;;;;;;3.75;2.10;;;2.50;99.90;;;;;;5093181;28;20039;-78
2021/01/04 07:48:25;;;;;;;4.30;2.10;;;2.50;99.90;;;;;;5090610;28;20031;-79
2021/01/04 07:51:16;;;;;;;3.92;2.10;;;2.50;99.90;;;;;;5101508;28;20039;-77
2021/01/04 07:54:06;;;;;;;5.05;2.30;;;2.50;99.90;;;;;;5106588;27;20040;-81
2021/01/04 07:56:50;;;;;;;3.08;2.30;;;2.50;99.90;;;;;;5100072;28;20144;-79
2021/01/04 07:59:49;;;;;;;3.92;2.42;;;2.50;99.90;;;;;;5101936;28;20430;-77
2021/01/04 08:02:39;;;;;;;6.10;2.20;;;2.50;99.90;;;;;;5098786;28;20040;-79
2021/01/04 08:05:23;;;;;;;3.83;2.35;;;2.40;99.90;;;;;;5087982;28;20520;-77
2021/01/04 08:08:26;;;;;;;2.80;1.90;;;2.40;99.90;;;;;;5087822;28;20052;-79
2021/01/04 08:11:31;;;;;;;5.07;2.42;;;2.40;99.90;;;;;;5092471;28;20089;-78
2021/01/04 08:14:21;;;;;;;3.33;1.90;;;2.50;99.90;;;;;;5093434;28;20051;-80
2021/01/04 08:16:54;;;;;;;4.40;2.20;;;2.50;99.90;;;;;;5087575;28;20064;-81
2021/01/04 08:19:23;;;;;;;4.03;2.25;;;2.50;99.90;;;;;;5092929;28;20119;-78
2021/01/04 08:21:59;;;;;;;4.25;2.67;;;2.50;99.90;;;;;;5105159;28;20040;-79
2021/01/04 08:24:36;;;;;;;4.63;2.60;;;2.50;99.90;;;;;;5089082;28;20082;-81
2021/01/04 08:27:26;;;;;;;3.42;2.63;;;2.40;99.90;;;;;;5100573;28;20059;-81
2021/01/04 08:30:12;;;;;;;4.13;2.60;;;2.50;99.90;;;;;;5101101;28;20041;-77
2021/01/04 08:32:47;;;;;;;5.00;1.90;;;2.50;99.90;;;;;;5101159;27;20053;-77
2021/01/04 08:35:28;;;;;;;6.40;2.28;;;2.50;99.90;;;;;;5096338;28;20080;-77
2021/01/04 08:38:14;;;;;;;5.05;2.42;;;2.50;99.90;;;;;;5091095;28;20100;-76
2021/01/04 08:40:59;;;;;;;4.78;2.40;;;2.50;99.90;;;;;;5099068;28;20118;-77
2021/01/04 08:43:37;;;;;;;3.75;2.40;;;2.50;99.90;;;;;;5097624;28;20538;-78
2021/01/04 08:46:14;;;;;;;3.95;2.30;;;2.50;99.90;;;;;;5093173;28;20115;-76
2021/01/04 08:48:40;;;;;;;4.80;2.35;;;2.80;99.90;;;;;;5092156;28;20136;-80
2021/01/04 08:51:24;;;;;;;4.00;1.98;;;2.50;99.90;;;;;;5090954;28;20449;-78
2021/01/04 08:54:14;;;;;;;5.63;2.20;;;2.50;99.90;;;;;;5102224;28;20485;-77
2021/01/04 08:56:44;;;;;;;3.63;2.40;;;2.50;99.90;;;;;;5094995;28;20566;-76
2021/01/04 08:59:22;;;;;;;3.80;2.33;;;2.50;99.90;;;;;;5090404;28;20140;-78
2021/01/04 09:01:58;;;;;;;4.00;1.95;;;2.60;99.90;;;;;;5101564;27;20035;-76
2021/01/04 09:04:36;;;;;;;4.13;2.33;;;2.50;99.90;;;;;;5091284;28;20074;-75
2021/01/04 09:07:05;;;;;;;6.40;2.60;;;2.50;99.90;;;;;;5101578;28;20056;-76
2021/01/04 09:09:39;;;;;;;5.65;2.10;;;2.50;99.90;;;;;;5092110;28;20032;-80
2021/01/04 09:12:37;;;;;;;3.90;2.10;;;2.50;99.90;;;;;;5106504;28;20043;-79
2021/01/04 09:15:25;;;;;;;6.20;2.58;;;2.50;99.90;;;;;;5095921;28;20040;-78
2021/01/04 09:18:01;;;;;;;3.88;2.30;;;2.50;99.90;;;;;;5092032;28;20032;-76
2021/01/04 09:20:52;;;;;;;3.65;2.10;;;2.50;99.90;;;;;;5104829;28;20050;-77
2021/01/04 09:23:32;;;;;;;3.72;2.17;;;2.40;99.90;;;;;;5094633;28;20048;-78
2021/01/04 09:26:01;;;;;;;3.75;2.55;;;2.50;99.90;;;;;;5101219;28;20481;-77
2021/01/04 09:28:38;;;;;;;6.53;2.20;;;2.40;99.90;;;;;;5091855;28;20435;-77
2021/01/04 09:31:05;;;;;;;7.05;2.83;;;2.40;99.90;;;;;;5106715;28;20070;-83
2021/01/04 09:33:31;;;;;;;5.45;2.33;;;2.40;99.90;;;;;;5103230;28;20126;-77
2021/01/04 09:36:05;;;;;;;6.30;2.53;;;2.40;99.90;;;;;;5098478;28;20602;-76
2021/01/04 09:38:31;;;;;;;7.78;2.60;;;2.40;99.90;;;;;;5106016;28;20059;-79
2021/01/04 09:41:04;;;;;;;6.07;2.38;;;2.40;99.90;;;;;;5092174;28;20111;-78
2021/01/04 09:43:34;;;;;;;4.05;2.35;;;2.40;99.90;;;;;;5094131;28;20544;-77
2021/01/04 09:46:21;;;;;;;3.45;2.20;;;2.40;99.90;;;;;;5101074;28;20039;-76
2021/01/04 09:49:02;;;;;;;6.70;2.50;;;2.40;99.90;;;;;;5111549;28;20078;-81
2021/01/04 09:52:18;;;;;;;4.18;2.58;;;2.40;99.90;;;;;;5104514;28;20036;-81
2021/01/04 09:54:49;;;;;;;7.10;2.83;;;2.30;99.90;;;;;;5105621;28;20455;-79
2021/01/04 09:57:20;;;;;;;7.10;2.55;;;2.40;99.90;;;;;;5116109;28;20096;-76
2021/01/04 09:59:50;;;;;;;4.20;2.30;;;2.30;99.90;;;;;;5108044;27;20036;-76
2021/01/04 10:02:27;;;;;;;5.10;2.00;;;2.30;99.90;;;;;;5105718;28;20477;-81
2021/01/04 10:04:54;;;;;;;6.78;2.35;;;2.40;99.90;;;;;;5093527;27;20374;-76
2021/01/04 10:07:26;;;;;;;3.75;2.28;;;2.50;99.90;;;;;;5094728;28;20065;-77
2021/01/04 10:10:00;;;;;;;3.35;2.30;;;2.40;99.90;;;;;;5101835;28;20032;-78
2021/01/04 10:12:34;;;;;;;4.45;2.00;;;2.40;99.90;;;;;;5092129;28;20079;-78
2021/01/04 10:15:03;;;;;;;4.75;2.08;;;2.40;99.90;;;;;;5097296;28;20070;-79
2021/01/04 10:18:08;;;;;;;3.72;2.22;;;2.40;99.90;;;;;;5096212;28;20063;-77
2021/01/04 10:20:49;;;;;;;3.30;2.28;;;2.40;99.90;;;;;;5110834;28;20315;-76
2021/01/04 10:23:30;;;;;;;5.53;2.40;;;2.40;99.90;;;;;;5100205;28;20033;-79
2021/01/04 10:25:59;;;;;;;5.55;2.40;;;2.40;99.90;;;;;;5110460;28;20051;-77
2021/01/04 10:28:33;;;;;;;3.75;2.33;;;2.40;99.90;;;;;;5090747;28;20640;-77
2021/01/04 10:31:29;;;;;;;4.18;2.80;;;2.40;99.90;;;;;;5094156;28;20087;-77
2021/01/04 10:34:10;;;;;;;4.55;2.92;;;2.30;99.90;;;;;;5093170;28;20093;-79
2021/01/04 10:36:38;;;;;;;3.67;2.10;;;2.30;99.90;;;;;;5104537;28;20036;-80
2021/01/04 10:39:19;;;;;;;4.05;2.75;;;2.40;99.90;;;;;;5093483;28;20623;-76
2021/01/04 10:41:45;;;;;;;3.28;2.40;;;2.40;99.90;;;;;;5104749;28;20039;-79
2021/01/04 10:44:21;;;;;;;4.07;2.58;;;2.40;99.90;;;;;;5095991;28;20040;-80
2021/01/04 10:46:55;;;;;;;3.53;2.13;;;2.40;99.90;;;;;;5093613;28;20477;-76
2021/01/04 10:49:31;;;;;;;4.20;2.50;;;2.40;99.90;;;;;;5093996;28;20113;-80
2021/01/04 10:51:58;;;;;;;3.63;2.05;;;2.90;99.90;;;;;;5090644;28;20036;-77
2021/01/04 10:54:35;;;;;;;7.13;2.80;;;2.30;99.90;;;;;;5097089;28;20042;-86
2021/01/04 10:57:06;;;;;;;4.28;2.33;;;2.30;99.90;;;;;;5094634;28;20097;-79
2021/01/04 10:59:57;;;;;;;5.57;2.90;;;2.30;99.90;;;;;;5095358;27;20107;-80
2021/01/04 11:02:22;;;;;;;4.25;1.98;;;2.30;99.90;;;;;;5094264;28;20063;-76
2021/01/04 11:04:55;;;;;;;4.10;2.30;;;2.30;99.90;;;;;;5094079;28;20528;-80
2021/01/04 11:07:32;;;;;;;5.13;2.58;;;2.30;99.90;;;;;;5106372;28;20067;-79
2021/01/04 11:10:29;;;;;;;3.65;2.25;;;2.30;99.90;;;;;;5091508;28;20071;-74
2021/01/04 11:12:58;;;;;;;2.45;2.00;;;2.30;99.90;;;;;;5102789;28;20376;-76
2021/01/04 11:15:30;;;;;;;3.67;2.13;;;2.30;99.90;;;;;;5089996;28;20067;-77
2021/01/04 11:18:07;;;;;;;3.78;1.95;;;2.30;99.90;;;;;;5094096;28;20043;-77
2021/01/04 11:20:38;;;;;;;3.65;2.30;;;2.30;99.90;;;;;;5099757;28;20130;-78
2021/01/04 11:23:12;;;;;;;3.50;2.30;;;2.60;99.90;;;;;;5098490;28;20044;-77
2021/01/04 11:25:41;;;;;;;4.43;1.92;;;2.40;99.90;;;;;;5098867;28;20131;-79
2021/01/04 11:28:07;;;;;;;2.70;2.15;;;2.30;99.90;;;;;;5090759;28;20028;-76
2021/01/04 11:30:33;;;;;;;2.67;1.88;;;2.30;99.90;;;;;;5101555;28;20032;-78
2021/01/04 11:33:01;;;;;;;3.30;1.98;;;2.40;99.90;;;;;;5101952;28;20058;-81
2021/01/04 11:35:28;;;;;;;5.88;1.92;;;2.40;99.90;;;;;;5100498;28;20782;-80
2021/01/04 11:37:56;;;;;;;3.95;2.25;;;2.40;99.90;;;;;;5104225;28;20044;-77
2021/01/04 11:40:22;;;;;;;3.28;1.77;;;2.80;99.90;;;;;;5087720;28;20035;-78
2021/01/04 11:42:48;;;;;;;3.13;1.85;;;2.50;99.90;;;;;;5090677;28;20055;-81
2021/01/04 11:45:18;;;;;;;3.72;1.75;;;2.40;99.90;;;;;;5099307;28;20090;-79
2021/01/04 11:47:45;;;;;;;3.67;1.98;;;2.50;99.90;;;;;;5091895;28;20036;-80
2021/01/04 11:50:14;;;;;;;5.47;2.20;;;2.50;99.90;;;;;;5105535;27;20125;-80
2021/01/04 11:52:40;;;;;;;3.72;2.25;;;2.50;99.90;;;;;;5091170;28;20154;-77
2021/01/04 11:55:11;;;;;;;4.22;2.05;;;2.50;99.90;;;;;;5108743;28;20044;-75
2021/01/04 11:57:38;;;;;;;4.40;1.90;;;2.50;99.90;;;;;;5096878;28;20081;-80
2021/01/04 12:00:13;;;;;;;2.65;1.73;;;2.50;99.90;;;;;;5108808;27;20051;-75
2021/01/04 12:02:39;;;;;;;3.55;2.08;;;2.50;99.90;;;;;;5105389;27;20047;-77
2021/01/04 12:05:07;;;;;;;6.07;2.30;;;2.60;99.90;;;;;;5112580;27;20044;-75
2021/01/04 12:07:34;;;;;;;4.18;2.30;;;2.60;99.90;;;;;;5094237;28;20078;-78
2021/01/04 12:10:00;;;;;;;4.30;2.00;;;3.00;99.90;;;;;;5094357;28;20094;-80
2021/01/04 12:12:26;;;;;;;4.55;1.95;;;2.70;99.90;;;;;;5102136;28;20550;-79
2021/01/04 12:14:53;;;;;;;5.22;2.15;;;2.70;99.90;;;;;;5090396;28;20032;-77
2021/01/04 12:17:21;;;;;;;4.60;2.03;;;2.70;99.90;;;;;;5103474;28;20031;-78
2021/01/04 12:19:47;;;;;;;7.22;2.05;;;2.60;99.90;;;;;;5103573;28;20035;-79
2021/01/04 12:22:14;;;;;;;3.35;2.20;;;2.60;99.90;;;;;;5092610;28;20067;-77
2021/01/04 12:24:43;;;;;;;3.65;2.20;;;2.60;99.90;;;;;;5102179;28;20101;-76
2021/01/04 12:27:10;;;;;;;3.55;1.70;;;2.60;99.90;;;;;;5096998;28;20071;-80
2021/01/04 12:29:41;;;;;;;2.95;2.10;;;2.60;99.90;;;;;;5097531;28;20043;-80
2021/01/04 12:32:08;;;;;;;3.22;2.00;;;2.60;99.90;;;;;;5095998;28;20081;-76
2021/01/04 12:34:33;;;;;;;3.25;2.13;;;2.60;99.90;;;;;;5089590;28;20055;-82
2021/01/04 12:36:59;;;;;;;2.85;2.17;;;2.60;99.90;;;;;;5096664;28;20431;-76
2021/01/04 12:39:26;;;;;;;4.63;2.15;;;2.50;99.90;;;;;;5088892;28;20638;-78
2021/01/04 12:41:53;;;;;;;4.38;2.10;;;2.50;99.90;;;;;;5101222;28;20129;-74
2021/01/04 12:44:19;;;;;;;4.10;2.10;;;2.50;99.90;;;;;;5110391;28;20959;-75
2021/01/04 12:46:51;;;;;;;3.97;2.28;;;2.70;99.90;;;;;;5094852;28;20042;-81
2021/01/04 12:49:19;;;;;;;4.05;2.30;;;2.40;99.90;;;;;;5089922;28;20062;-79
2021/01/04 12:51:49;;;;;;;3.28;1.75;;;2.40;99.90;;;;;;5092864;28;20067;-75
2021/01/04 12:54:26;;;;;;;2.95;1.90;;;2.40;99.90;;;;;;5094781;28;20036;-74
2021/01/04 12:56:52;;;;;;;2.63;1.65;;;2.50;99.90;;;;;;5105469;28;20039;-74
2021/01/04 12:59:22;;;;;;;6.32;3.67;;;2.40;99.90;;;;;;5088924;28;20036;-76
2021/01/04 13:01:51;;;;;;;2.85;1.98;;;2.40;99.90;;;;;;5109774;28;20043;-77
2021/01/04 13:04:22;;;;;;;2.75;1.92;;;2.40;99.90;;;;;;5094271;28;20028;-74
2021/01/04 13:06:48;;;;;;;3.95;2.00;;;2.40;99.90;;;;;;5097653;28;20051;-74
2021/01/04 13:09:15;;;;;;;2.47;2.13;;;2.50;99.90;;;;;;5085810;28;20060;-73
2021/01/04 13:11:45;;;;;;;3.45;1.90;;;2.50;99.90;;;;;;5093274;28;20473;-76
2021/01/04 13:14:11;;;;;;;3.92;1.80;;;2.60;99.90;;;;;;5090834;28;20432;-77
2021/01/04 13:16:39;;;;;;;2.85;1.77;;;2.60;99.90;;;;;;5101911;28;20131;-76
2021/01/04 13:19:06;;;;;;;4.20;2.30;;;2.60;99.90;;;;;;5105554;28;20108;-76
2021/01/04 13:21:32;;;;;;;3.25;1.83;;;2.60;99.90;;;;;;5096021;28;20055;-78
2021/01/04 13:23:58;;;;;;;3.97;1.83;;;2.60;99.90;;;;;;5102548;28;20411;-73
2021/01/04 13:26:24;;;;;;;3.50;2.17;;;2.70;99.90;;;;;;5097573;28;20089;-75
2021/01/04 13:28:50;;;;;;;4.40;1.95;;;2.60;99.90;;;;;;5103195;28;20035;-75
2021/01/04 13:31:24;;;;;;;2.80;1.70;;;2.60;99.90;;;;;;5089989;28;20495;-76
2021/01/04 13:33:50;;;;;;;2.70;1.83;;;2.60;99.90;;;;;;5094204;28;20080;-76
2021/01/04 13:36:17;;;;;;;3.03;1.90;;;2.60;99.90;;;;;;5097526;28;20044;-80
2021/01/04 13:38:43;;;;;;;2.83;2.05;;;2.60;99.90;;;;;;5087485;28;20540;-78
2021/01/04 13:41:08;;;;;;;2.80;1.75;;;2.60;99.90;;;;;;5100228;28;20038;-75
2021/01/04 13:43:36;;;;;;;3.10;1.80;;;2.60;99.90;;;;;;5091952;28;20063;-77
2021/01/04 13:46:02;;;;;;;4.60;2.20;;;2.60;99.90;;;;;;5094046;28;20043;-76
2021/01/04 13:48:28;;;;;;;4.05;2.03;;;2.60;99.90;;;;;;5090761;28;20040;-76
2021/01/04 13:50:54;;;;;;;3.63;1.80;;;2.60;99.90;;;;;;5091231;28;20040;-77